sensor_id;sensor_type;location;lat;lon;timestamp;P1;durP1;ratioP1;P2;durP2;ratioP2
79027;SDS011;68427;48.476;19.102;2023-06-22T00:00:45;5.05;;;2.30;;
79027;SDS011;68427;48.476;19.102;2023-06-22T00:03:11;7.68;;;1.50;;
79027;SDS011;68427;48.476;19.102;2023-06-22T00:05:37;6.40;;;1.88;;
79027;SDS011;68427;48.476;19.102;2023-06-22T00:08:03;6.85;;;2.58;;
79027;SDS011;68427;48.476;19.102;2023-06-22T00:10:31;6.63;;;2.03;;
79027;SDS011;68427;48.476;19.102;2023-06-22T00:12:57;6.07;;;1.75;;
79027;SDS011;68427;48.476;19.102;2023-06-22T00:15:23;6.97;;;1.42;;
79027;SDS011;68427;48.476;19.102;2023-06-22T00:17:50;5.97;;;1.63;;
79027;SDS011;68427;48.476;19.102;2023-06-22T00:20:16;6.30;;;2.25;;
79027;SDS011;68427;48.476;19.102;2023-06-22T00:22:43;5.75;;;2.45;;
79027;SDS011;68427;48.476;19.102;2023-06-22T00:25:09;4.25;;;2.00;;
79027;SDS011;68427;48.476;19.102;2023-06-22T00:27:35;6.40;;;2.33;;
79027;SDS011;68427;48.476;19.102;2023-06-22T00:30:01;5.03;;;2.15;;
79027;SDS011;68427;48.476;19.102;2023-06-22T00:32:28;9.98;;;1.95;;
79027;SDS011;68427;48.476;19.102;2023-06-22T00:34:55;6.60;;;1.73;;
79027;SDS011;68427;48.476;19.102;2023-06-22T00:37:21;5.80;;;1.90;;
79027;SDS011;68427;48.476;19.102;2023-06-22T00:39:50;4.97;;;2.03;;
79027;SDS011;68427;48.476;19.102;2023-06-22T00:42:16;5.50;;;1.85;;
79027;SDS011;68427;48.476;19.102;2023-06-22T00:44:42;6.88;;;2.22;;
79027;SDS011;68427;48.476;19.102;2023-06-22T00:47:08;8.63;;;2.40;;
79027;SDS011;68427;48.476;19.102;2023-06-22T00:49:34;7.28;;;3.03;;
79027;SDS011;68427;48.476;19.102;2023-06-22T00:52:02;6.70;;;2.53;;
79027;SDS011;68427;48.476;19.102;2023-06-22T00:54:28;6.18;;;2.35;;
79027;SDS011;68427;48.476;19.102;2023-06-22T00:56:54;6.95;;;2.53;;
79027;SDS011;68427;48.476;19.102;2023-06-22T00:59:21;7.53;;;1.65;;
79027;SDS011;68427;48.476;19.102;2023-06-22T01:01:48;4.72;;;2.28;;
79027;SDS011;68427;48.476;19.102;2023-06-22T01:04:13;6.35;;;1.75;;
79027;SDS011;68427;48.476;19.102;2023-06-22T01:06:41;6.63;;;3.10;;
79027;SDS011;68427;48.476;19.102;2023-06-22T01:11:48;7.32;;;1.75;;
79027;SDS011;68427;48.476;19.102;2023-06-22T01:14:21;8.20;;;1.67;;
79027;SDS011;68427;48.476;19.102;2023-06-22T01:16:51;7.35;;;2.90;;
79027;SDS011;68427;48.476;19.102;2023-06-22T01:19:32;5.18;;;2.05;;
79027;SDS011;68427;48.476;19.102;2023-06-22T01:22:03;6.35;;;1.92;;
79027;SDS011;68427;48.476;19.102;2023-06-22T01:24:32;6.20;;;2.08;;
79027;SDS011;68427;48.476;19.102;2023-06-22T01:27:09;4.90;;;1.98;;
79027;SDS011;68427;48.476;19.102;2023-06-22T01:29:54;4.35;;;1.73;;
79027;SDS011;68427;48.476;19.102;2023-06-22T01:32:25;6.03;;;1.95;;
79027;SDS011;68427;48.476;19.102;2023-06-22T01:34:53;8.77;;;3.28;;
79027;SDS011;68427;48.476;19.102;2023-06-22T01:37:19;8.98;;;2.55;;
79027;SDS011;68427;48.476;19.102;2023-06-22T01:39:45;5.97;;;2.42;;
79027;SDS011;68427;48.476;19.102;2023-06-22T01:42:11;4.03;;;2.03;;
79027;SDS011;68427;48.476;19.102;2023-06-22T01:44:37;5.68;;;1.95;;
79027;SDS011;68427;48.476;19.102;2023-06-22T01:47:05;5.78;;;2.08;;
79027;SDS011;68427;48.476;19.102;2023-06-22T01:49:32;6.15;;;1.83;;
79027;SDS011;68427;48.476;19.102;2023-06-22T01:51:58;7.10;;;2.50;;
79027;SDS011;68427;48.476;19.102;2023-06-22T01:54:23;9.07;;;2.70;;
79027;SDS011;68427;48.476;19.102;2023-06-22T01:56:49;6.07;;;1.52;;
79027;SDS011;68427;48.476;19.102;2023-06-22T01:59:17;4.65;;;1.42;;
79027;SDS011;68427;48.476;19.102;2023-06-22T02:01:52;4.80;;;2.05;;
79027;SDS011;68427;48.476;19.102;2023-06-22T02:04:25;5.68;;;2.83;;
79027;SDS011;68427;48.476;19.102;2023-06-22T02:06:55;5.50;;;2.00;;
79027;SDS011;68427;48.476;19.102;2023-06-22T02:09:23;4.55;;;1.70;;
79027;SDS011;68427;48.476;19.102;2023-06-22T02:11:54;7.97;;;1.85;;
79027;SDS011;68427;48.476;19.102;2023-06-22T02:14:22;4.10;;;3.05;;
79027;SDS011;68427;48.476;19.102;2023-06-22T02:16:49;4.93;;;2.00;;
79027;SDS011;68427;48.476;19.102;2023-06-22T02:19:16;5.03;;;2.00;;
79027;SDS011;68427;48.476;19.102;2023-06-22T02:21:45;6.35;;;1.75;;
79027;SDS011;68427;48.476;19.102;2023-06-22T02:24:11;5.97;;;2.60;;
79027;SDS011;68427;48.476;19.102;2023-06-22T02:26:36;7.15;;;2.28;;
79027;SDS011;68427;48.476;19.102;2023-06-22T02:29:05;5.82;;;1.92;;
79027;SDS011;68427;48.476;19.102;2023-06-22T02:31:30;9.73;;;2.47;;
79027;SDS011;68427;48.476;19.102;2023-06-22T02:33:56;5.10;;;2.17;;
79027;SDS011;68427;48.476;19.102;2023-06-22T02:36:22;4.07;;;1.92;;
79027;SDS011;68427;48.476;19.102;2023-06-22T02:38:50;5.30;;;1.95;;
79027;SDS011;68427;48.476;19.102;2023-06-22T02:41:16;8.15;;;3.08;;
79027;SDS011;68427;48.476;19.102;2023-06-22T02:43:44;6.22;;;2.28;;
79027;SDS011;68427;48.476;19.102;2023-06-22T02:46:10;5.45;;;1.98;;
79027;SDS011;68427;48.476;19.102;2023-06-22T02:48:39;4.07;;;1.92;;
79027;SDS011;68427;48.476;19.102;2023-06-22T02:51:05;6.28;;;1.90;;
79027;SDS011;68427;48.476;19.102;2023-06-22T02:53:31;9.32;;;2.60;;
79027;SDS011;68427;48.476;19.102;2023-06-22T02:55:58;5.03;;;2.70;;
79027;SDS011;68427;48.476;19.102;2023-06-22T02:58:26;7.07;;;2.08;;
79027;SDS011;68427;48.476;19.102;2023-06-22T03:00:52;4.40;;;2.03;;
79027;SDS011;68427;48.476;19.102;2023-06-22T03:03:20;6.05;;;2.15;;
79027;SDS011;68427;48.476;19.102;2023-06-22T03:05:46;10.15;;;2.67;;
79027;SDS011;68427;48.476;19.102;2023-06-22T03:08:12;6.45;;;2.00;;
79027;SDS011;68427;48.476;19.102;2023-06-22T03:10:37;5.13;;;3.13;;
79027;SDS011;68427;48.476;19.102;2023-06-22T03:13:04;7.22;;;2.40;;
79027;SDS011;68427;48.476;19.102;2023-06-22T03:15:30;6.10;;;1.98;;
79027;SDS011;68427;48.476;19.102;2023-06-22T03:20:23;8.38;;;2.67;;
79027;SDS011;68427;48.476;19.102;2023-06-22T03:22:49;5.68;;;1.75;;
79027;SDS011;68427;48.476;19.102;2023-06-22T03:25:14;7.85;;;2.45;;
79027;SDS011;68427;48.476;19.102;2023-06-22T03:27:40;4.53;;;1.25;;
79027;SDS011;68427;48.476;19.102;2023-06-22T03:30:09;4.57;;;2.17;;
79027;SDS011;68427;48.476;19.102;2023-06-22T03:32:36;3.47;;;1.90;;
79027;SDS011;68427;48.476;19.102;2023-06-22T03:35:02;5.20;;;1.90;;
79027;SDS011;68427;48.476;19.102;2023-06-22T03:37:28;5.20;;;2.25;;
79027;SDS011;68427;48.476;19.102;2023-06-22T03:39:54;4.68;;;1.13;;
79027;SDS011;68427;48.476;19.102;2023-06-22T03:42:20;3.92;;;1.80;;
79027;SDS011;68427;48.476;19.102;2023-06-22T03:44:46;6.40;;;1.95;;
79027;SDS011;68427;48.476;19.102;2023-06-22T03:47:13;4.07;;;1.27;;
79027;SDS011;68427;48.476;19.102;2023-06-22T03:52:04;4.95;;;1.42;;
79027;SDS011;68427;48.476;19.102;2023-06-22T03:54:30;4.78;;;1.52;;
79027;SDS011;68427;48.476;19.102;2023-06-22T03:56:57;4.70;;;2.38;;
79027;SDS011;68427;48.476;19.102;2023-06-22T03:59:23;5.68;;;2.83;;
79027;SDS011;68427;48.476;19.102;2023-06-22T04:01:49;5.53;;;2.35;;
79027;SDS011;68427;48.476;19.102;2023-06-22T04:04:18;7.40;;;2.58;;
79027;SDS011;68427;48.476;19.102;2023-06-22T04:06:43;9.93;;;5.20;;
79027;SDS011;68427;48.476;19.102;2023-06-22T04:09:09;7.32;;;3.50;;
79027;SDS011;68427;48.476;19.102;2023-06-22T04:11:35;6.88;;;3.33;;
79027;SDS011;68427;48.476;19.102;2023-06-22T04:14:01;25.55;;;3.20;;
79027;SDS011;68427;48.476;19.102;2023-06-22T04:16:26;8.77;;;2.70;;
79027;SDS011;68427;48.476;19.102;2023-06-22T04:18:52;27.90;;;2.67;;
79027;SDS011;68427;48.476;19.102;2023-06-22T04:21:19;17.75;;;3.58;;
79027;SDS011;68427;48.476;19.102;2023-06-22T04:23:45;9.98;;;2.88;;
79027;SDS011;68427;48.476;19.102;2023-06-22T04:26:11;10.98;;;3.20;;
79027;SDS011;68427;48.476;19.102;2023-06-22T04:28:37;11.73;;;3.55;;
79027;SDS011;68427;48.476;19.102;2023-06-22T04:31:03;11.57;;;2.65;;
79027;SDS011;68427;48.476;19.102;2023-06-22T04:33:29;6.50;;;3.47;;
79027;SDS011;68427;48.476;19.102;2023-06-22T04:35:54;7.20;;;2.45;;
79027;SDS011;68427;48.476;19.102;2023-06-22T04:38:23;8.98;;;2.65;;
79027;SDS011;68427;48.476;19.102;2023-06-22T04:40:49;8.15;;;3.33;;
79027;SDS011;68427;48.476;19.102;2023-06-22T04:43:15;7.15;;;4.18;;
79027;SDS011;68427;48.476;19.102;2023-06-22T04:45:41;6.25;;;3.55;;
79027;SDS011;68427;48.476;19.102;2023-06-22T04:48:07;9.27;;;3.20;;
79027;SDS011;68427;48.476;19.102;2023-06-22T04:50:34;8.07;;;3.22;;
79027;SDS011;68427;48.476;19.102;2023-06-22T04:53:00;6.65;;;3.30;;
79027;SDS011;68427;48.476;19.102;2023-06-22T04:55:31;9.00;;;3.28;;
79027;SDS011;68427;48.476;19.102;2023-06-22T04:57:57;8.40;;;3.58;;
79027;SDS011;68427;48.476;19.102;2023-06-22T05:00:29;9.50;;;4.25;;
79027;SDS011;68427;48.476;19.102;2023-06-22T05:02:56;7.60;;;3.60;;
79027;SDS011;68427;48.476;19.102;2023-06-22T05:05:23;7.63;;;4.28;;
79027;SDS011;68427;48.476;19.102;2023-06-22T05:07:50;6.25;;;3.50;;
79027;SDS011;68427;48.476;19.102;2023-06-22T05:10:18;8.20;;;3.83;;
79027;SDS011;68427;48.476;19.102;2023-06-22T05:12:45;8.75;;;3.90;;
79027;SDS011;68427;48.476;19.102;2023-06-22T05:15:11;10.18;;;3.30;;
79027;SDS011;68427;48.476;19.102;2023-06-22T05:17:37;6.25;;;3.72;;
79027;SDS011;68427;48.476;19.102;2023-06-22T05:20:10;7.43;;;3.83;;
79027;SDS011;68427;48.476;19.102;2023-06-22T05:22:36;8.32;;;3.65;;
79027;SDS011;68427;48.476;19.102;2023-06-22T05:25:02;7.13;;;4.03;;
79027;SDS011;68427;48.476;19.102;2023-06-22T05:27:28;7.65;;;3.38;;
79027;SDS011;68427;48.476;19.102;2023-06-22T05:29:55;9.50;;;4.40;;
79027;SDS011;68427;48.476;19.102;2023-06-22T05:32:20;7.45;;;3.35;;
79027;SDS011;68427;48.476;19.102;2023-06-22T05:34:46;8.32;;;3.50;;
79027;SDS011;68427;48.476;19.102;2023-06-22T05:37:12;10.10;;;3.75;;
79027;SDS011;68427;48.476;19.102;2023-06-22T05:39:38;7.80;;;3.90;;
79027;SDS011;68427;48.476;19.102;2023-06-22T05:42:04;8.90;;;3.78;;
79027;SDS011;68427;48.476;19.102;2023-06-22T05:44:30;5.78;;;3.53;;
79027;SDS011;68427;48.476;19.102;2023-06-22T05:46:57;7.10;;;3.13;;
79027;SDS011;68427;48.476;19.102;2023-06-22T05:49:22;5.22;;;2.65;;
79027;SDS011;68427;48.476;19.102;2023-06-22T05:51:49;6.32;;;3.42;;
79027;SDS011;68427;48.476;19.102;2023-06-22T05:54:15;5.97;;;3.22;;
79027;SDS011;68427;48.476;19.102;2023-06-22T05:56:43;7.03;;;3.78;;
79027;SDS011;68427;48.476;19.102;2023-06-22T05:59:08;4.55;;;2.28;;
79027;SDS011;68427;48.476;19.102;2023-06-22T06:01:34;7.30;;;2.88;;
79027;SDS011;68427;48.476;19.102;2023-06-22T06:04:02;6.18;;;2.67;;
79027;SDS011;68427;48.476;19.102;2023-06-22T06:06:29;5.93;;;2.05;;
79027;SDS011;68427;48.476;19.102;2023-06-22T06:08:55;9.27;;;2.38;;
79027;SDS011;68427;48.476;19.102;2023-06-22T06:11:21;7.88;;;2.70;;
79027;SDS011;68427;48.476;19.102;2023-06-22T06:13:47;6.18;;;2.67;;
79027;SDS011;68427;48.476;19.102;2023-06-22T06:16:12;5.63;;;2.67;;
79027;SDS011;68427;48.476;19.102;2023-06-22T06:18:38;4.85;;;2.58;;
79027;SDS011;68427;48.476;19.102;2023-06-22T06:21:05;8.35;;;2.83;;
79027;SDS011;68427;48.476;19.102;2023-06-22T06:25:56;5.03;;;1.98;;
79027;SDS011;68427;48.476;19.102;2023-06-22T06:28:22;6.55;;;2.05;;
79027;SDS011;68427;48.476;19.102;2023-06-22T06:30:49;5.40;;;2.47;;
79027;SDS011;68427;48.476;19.102;2023-06-22T06:33:17;6.63;;;2.05;;
79027;SDS011;68427;48.476;19.102;2023-06-22T06:35:42;3.92;;;2.17;;
79027;SDS011;68427;48.476;19.102;2023-06-22T06:38:09;6.78;;;2.72;;
79027;SDS011;68427;48.476;19.102;2023-06-22T06:40:35;5.03;;;1.70;;
79027;SDS011;68427;48.476;19.102;2023-06-22T06:43:01;4.90;;;2.10;;
79027;SDS011;68427;48.476;19.102;2023-06-22T06:45:27;5.45;;;2.70;;
79027;SDS011;68427;48.476;19.102;2023-06-22T06:47:53;7.05;;;1.95;;
79027;SDS011;68427;48.476;19.102;2023-06-22T06:50:19;9.13;;;2.03;;
79027;SDS011;68427;48.476;19.102;2023-06-22T06:52:45;6.03;;;1.73;;
79027;SDS011;68427;48.476;19.102;2023-06-22T06:55:12;7.47;;;1.65;;
79027;SDS011;68427;48.476;19.102;2023-06-22T06:57:39;4.93;;;2.63;;
79027;SDS011;68427;48.476;19.102;2023-06-22T07:00:05;5.68;;;2.10;;
79027;SDS011;68427;48.476;19.102;2023-06-22T07:02:34;5.95;;;1.90;;
79027;SDS011;68427;48.476;19.102;2023-06-22T07:05:00;8.98;;;2.35;;
79027;SDS011;68427;48.476;19.102;2023-06-22T07:07:28;5.65;;;2.53;;
79027;SDS011;68427;48.476;19.102;2023-06-22T07:09:54;8.15;;;2.90;;
79027;SDS011;68427;48.476;19.102;2023-06-22T07:12:21;7.88;;;2.13;;
79027;SDS011;68427;48.476;19.102;2023-06-22T07:14:47;5.93;;;2.40;;
79027;SDS011;68427;48.476;19.102;2023-06-22T07:17:13;5.70;;;2.03;;
79027;SDS011;68427;48.476;19.102;2023-06-22T07:19:38;6.25;;;2.15;;
79027;SDS011;68427;48.476;19.102;2023-06-22T07:22:05;6.07;;;2.15;;
79027;SDS011;68427;48.476;19.102;2023-06-22T07:24:31;5.95;;;1.98;;
79027;SDS011;68427;48.476;19.102;2023-06-22T07:26:57;5.30;;;1.92;;
79027;SDS011;68427;48.476;19.102;2023-06-22T07:29:25;6.75;;;2.75;;
79027;SDS011;68427;48.476;19.102;2023-06-22T07:31:51;7.65;;;1.95;;
79027;SDS011;68427;48.476;19.102;2023-06-22T07:34:18;6.93;;;2.30;;
79027;SDS011;68427;48.476;19.102;2023-06-22T07:36:44;6.63;;;2.55;;
79027;SDS011;68427;48.476;19.102;2023-06-22T07:39:10;6.80;;;2.45;;
79027;SDS011;68427;48.476;19.102;2023-06-22T07:41:37;5.97;;;2.30;;
79027;SDS011;68427;48.476;19.102;2023-06-22T07:44:04;6.00;;;2.35;;
79027;SDS011;68427;48.476;19.102;2023-06-22T07:46:31;5.53;;;2.17;;
79027;SDS011;68427;48.476;19.102;2023-06-22T07:48:57;6.95;;;2.35;;
79027;SDS011;68427;48.476;19.102;2023-06-22T07:51:23;5.53;;;2.40;;
79027;SDS011;68427;48.476;19.102;2023-06-22T07:53:49;7.47;;;2.20;;
79027;SDS011;68427;48.476;19.102;2023-06-22T07:56:14;5.10;;;2.53;;
79027;SDS011;68427;48.476;19.102;2023-06-22T07:58:44;6.13;;;1.92;;
79027;SDS011;68427;48.476;19.102;2023-06-22T08:01:10;7.07;;;2.28;;
79027;SDS011;68427;48.476;19.102;2023-06-22T08:03:37;6.78;;;2.25;;
79027;SDS011;68427;48.476;19.102;2023-06-22T08:06:04;7.78;;;3.45;;
79027;SDS011;68427;48.476;19.102;2023-06-22T08:08:33;6.55;;;2.13;;
79027;SDS011;68427;48.476;19.102;2023-06-22T08:10:59;4.97;;;2.13;;
79027;SDS011;68427;48.476;19.102;2023-06-22T08:13:25;4.88;;;2.28;;
79027;SDS011;68427;48.476;19.102;2023-06-22T08:15:50;3.53;;;2.15;;
79027;SDS011;68427;48.476;19.102;2023-06-22T08:18:16;6.90;;;2.17;;
79027;SDS011;68427;48.476;19.102;2023-06-22T08:20:43;5.03;;;1.92;;
79027;SDS011;68427;48.476;19.102;2023-06-22T08:23:09;6.32;;;1.73;;
79027;SDS011;68427;48.476;19.102;2023-06-22T08:25:35;6.00;;;2.55;;
79027;SDS011;68427;48.476;19.102;2023-06-22T08:28:00;4.40;;;2.05;;
79027;SDS011;68427;48.476;19.102;2023-06-22T08:30:26;5.68;;;2.67;;
79027;SDS011;68427;48.476;19.102;2023-06-22T08:32:52;5.10;;;2.25;;
79027;SDS011;68427;48.476;19.102;2023-06-22T08:35:19;5.43;;;2.30;;
79027;SDS011;68427;48.476;19.102;2023-06-22T08:37:47;5.75;;;2.03;;
79027;SDS011;68427;48.476;19.102;2023-06-22T08:40:17;4.95;;;2.85;;
79027;SDS011;68427;48.476;19.102;2023-06-22T08:42:42;6.60;;;2.67;;
79027;SDS011;68427;48.476;19.102;2023-06-22T08:45:09;7.13;;;3.05;;
79027;SDS011;68427;48.476;19.102;2023-06-22T08:47:38;5.70;;;2.15;;
79027;SDS011;68427;48.476;19.102;2023-06-22T08:50:04;6.53;;;2.10;;
79027;SDS011;68427;48.476;19.102;2023-06-22T08:52:31;6.93;;;2.67;;
79027;SDS011;68427;48.476;19.102;2023-06-22T08:54:58;7.35;;;2.28;;
79027;SDS011;68427;48.476;19.102;2023-06-22T08:57:24;5.35;;;2.40;;
79027;SDS011;68427;48.476;19.102;2023-06-22T08:59:50;6.20;;;2.47;;
79027;SDS011;68427;48.476;19.102;2023-06-22T09:02:17;5.70;;;2.17;;
79027;SDS011;68427;48.476;19.102;2023-06-22T09:04:43;6.00;;;2.67;;
79027;SDS011;68427;48.476;19.102;2023-06-22T09:07:08;6.38;;;3.22;;
79027;SDS011;68427;48.476;19.102;2023-06-22T09:09:34;6.32;;;3.05;;
79027;SDS011;68427;48.476;19.102;2023-06-22T09:12:01;4.43;;;2.47;;
79027;SDS011;68427;48.476;19.102;2023-06-22T09:14:27;7.00;;;2.83;;
79027;SDS011;68427;48.476;19.102;2023-06-22T09:16:52;5.88;;;2.63;;
79027;SDS011;68427;48.476;19.102;2023-06-22T09:19:18;5.78;;;2.75;;
79027;SDS011;68427;48.476;19.102;2023-06-22T09:21:44;5.40;;;3.03;;
79027;SDS011;68427;48.476;19.102;2023-06-22T09:24:09;6.68;;;2.45;;
79027;SDS011;68427;48.476;19.102;2023-06-22T09:26:35;4.85;;;2.42;;
79027;SDS011;68427;48.476;19.102;2023-06-22T09:29:02;6.57;;;2.28;;
79027;SDS011;68427;48.476;19.102;2023-06-22T09:31:30;6.35;;;3.00;;
79027;SDS011;68427;48.476;19.102;2023-06-22T09:33:56;4.93;;;2.13;;
79027;SDS011;68427;48.476;19.102;2023-06-22T09:36:21;5.05;;;2.65;;
79027;SDS011;68427;48.476;19.102;2023-06-22T09:38:47;5.35;;;2.63;;
79027;SDS011;68427;48.476;19.102;2023-06-22T09:43:39;5.50;;;2.95;;
79027;SDS011;68427;48.476;19.102;2023-06-22T09:46:06;5.30;;;2.75;;
79027;SDS011;68427;48.476;19.102;2023-06-22T09:48:32;5.75;;;2.53;;
79027;SDS011;68427;48.476;19.102;2023-06-22T09:50:58;5.32;;;2.83;;
79027;SDS011;68427;48.476;19.102;2023-06-22T09:53:23;4.50;;;2.60;;
79027;SDS011;68427;48.476;19.102;2023-06-22T09:55:49;6.05;;;2.65;;
79027;SDS011;68427;48.476;19.102;2023-06-22T09:58:14;5.53;;;2.47;;
79027;SDS011;68427;48.476;19.102;2023-06-22T10:00:40;6.70;;;2.65;;
79027;SDS011;68427;48.476;19.102;2023-06-22T10:03:10;6.28;;;2.33;;
79027;SDS011;68427;48.476;19.102;2023-06-22T10:05:36;4.80;;;2.90;;
79027;SDS011;68427;48.476;19.102;2023-06-22T10:08:01;4.45;;;2.22;;
79027;SDS011;68427;48.476;19.102;2023-06-22T10:10:27;6.70;;;2.58;;
79027;SDS011;68427;48.476;19.102;2023-06-22T10:12:54;7.15;;;2.88;;
79027;SDS011;68427;48.476;19.102;2023-06-22T10:15:22;7.78;;;2.67;;
79027;SDS011;68427;48.476;19.102;2023-06-22T10:17:47;7.43;;;2.40;;
79027;SDS011;68427;48.476;19.102;2023-06-22T10:20:14;7.63;;;2.50;;
79027;SDS011;68427;48.476;19.102;2023-06-22T10:22:40;5.65;;;2.58;;
79027;SDS011;68427;48.476;19.102;2023-06-22T10:25:07;4.95;;;2.42;;
79027;SDS011;68427;48.476;19.102;2023-06-22T10:29:59;6.85;;;2.60;;
79027;SDS011;68427;48.476;19.102;2023-06-22T10:32:25;5.18;;;2.20;;
79027;SDS011;68427;48.476;19.102;2023-06-22T10:34:50;6.82;;;2.92;;
79027;SDS011;68427;48.476;19.102;2023-06-22T10:37:17;5.53;;;2.80;;
79027;SDS011;68427;48.476;19.102;2023-06-22T10:39:43;8.60;;;2.47;;
79027;SDS011;68427;48.476;19.102;2023-06-22T10:42:09;5.03;;;2.55;;
79027;SDS011;68427;48.476;19.102;2023-06-22T10:44:34;8.20;;;2.95;;
79027;SDS011;68427;48.476;19.102;2023-06-22T10:47:00;6.18;;;2.85;;
79027;SDS011;68427;48.476;19.102;2023-06-22T10:49:26;6.60;;;2.35;;
79027;SDS011;68427;48.476;19.102;2023-06-22T10:51:51;4.75;;;2.83;;
79027;SDS011;68427;48.476;19.102;2023-06-22T10:54:18;4.72;;;2.17;;
79027;SDS011;68427;48.476;19.102;2023-06-22T10:56:44;6.53;;;2.70;;
79027;SDS011;68427;48.476;19.102;2023-06-22T10:59:10;6.78;;;2.70;;
79027;SDS011;68427;48.476;19.102;2023-06-22T11:01:35;5.80;;;2.45;;
79027;SDS011;68427;48.476;19.102;2023-06-22T11:04:02;6.50;;;2.15;;
79027;SDS011;68427;48.476;19.102;2023-06-22T11:06:27;5.20;;;2.50;;
79027;SDS011;68427;48.476;19.102;2023-06-22T11:08:53;5.82;;;2.13;;
79027;SDS011;68427;48.476;19.102;2023-06-22T11:11:20;5.40;;;2.22;;
79027;SDS011;68427;48.476;19.102;2023-06-22T11:13:46;4.75;;;2.45;;
79027;SDS011;68427;48.476;19.102;2023-06-22T11:16:11;6.55;;;2.40;;
79027;SDS011;68427;48.476;19.102;2023-06-22T11:18:38;8.02;;;2.47;;
79027;SDS011;68427;48.476;19.102;2023-06-22T11:21:03;5.82;;;2.53;;
79027;SDS011;68427;48.476;19.102;2023-06-22T11:23:29;7.70;;;2.88;;
79027;SDS011;68427;48.476;19.102;2023-06-22T11:25:55;6.72;;;2.88;;
79027;SDS011;68427;48.476;19.102;2023-06-22T11:28:22;7.43;;;2.95;;
79027;SDS011;68427;48.476;19.102;2023-06-22T11:30:48;6.65;;;2.58;;
79027;SDS011;68427;48.476;19.102;2023-06-22T11:33:13;5.38;;;2.72;;
79027;SDS011;68427;48.476;19.102;2023-06-22T11:35:39;6.13;;;3.40;;
79027;SDS011;68427;48.476;19.102;2023-06-22T11:38:05;6.50;;;3.10;;
79027;SDS011;68427;48.476;19.102;2023-06-22T11:40:30;5.15;;;2.80;;
79027;SDS011;68427;48.476;19.102;2023-06-22T11:42:56;6.35;;;3.35;;
79027;SDS011;68427;48.476;19.102;2023-06-22T11:45:23;7.00;;;3.83;;
79027;SDS011;68427;48.476;19.102;2023-06-22T11:47:49;7.70;;;3.92;;
79027;SDS011;68427;48.476;19.102;2023-06-22T11:50:14;8.27;;;3.80;;
79027;SDS011;68427;48.476;19.102;2023-06-22T11:52:40;5.75;;;3.15;;
79027;SDS011;68427;48.476;19.102;2023-06-22T11:55:06;7.00;;;3.63;;
79027;SDS011;68427;48.476;19.102;2023-06-22T11:59:58;4.78;;;2.33;;
79027;SDS011;68427;48.476;19.102;2023-06-22T12:02:25;6.05;;;3.33;;
79027;SDS011;68427;48.476;19.102;2023-06-22T12:04:51;5.38;;;3.08;;
79027;SDS011;68427;48.476;19.102;2023-06-22T12:07:17;6.82;;;3.22;;
79027;SDS011;68427;48.476;19.102;2023-06-22T12:09:43;7.72;;;3.28;;
79027;SDS011;68427;48.476;19.102;2023-06-22T12:12:09;7.45;;;3.35;;
79027;SDS011;68427;48.476;19.102;2023-06-22T12:14:35;7.55;;;4.22;;
79027;SDS011;68427;48.476;19.102;2023-06-22T12:17:01;5.47;;;3.83;;
79027;SDS011;68427;48.476;19.102;2023-06-22T12:19:28;5.72;;;3.60;;
79027;SDS011;68427;48.476;19.102;2023-06-22T12:21:53;5.38;;;3.05;;
79027;SDS011;68427;48.476;19.102;2023-06-22T12:24:19;5.50;;;3.42;;
79027;SDS011;68427;48.476;19.102;2023-06-22T12:26:45;6.53;;;3.70;;
79027;SDS011;68427;48.476;19.102;2023-06-22T12:29:10;6.68;;;3.08;;
79027;SDS011;68427;48.476;19.102;2023-06-22T12:31:36;5.70;;;3.08;;
79027;SDS011;68427;48.476;19.102;2023-06-22T12:34:04;6.00;;;3.30;;
79027;SDS011;68427;48.476;19.102;2023-06-22T12:36:31;5.95;;;3.42;;
79027;SDS011;68427;48.476;19.102;2023-06-22T12:38:56;7.43;;;4.18;;
79027;SDS011;68427;48.476;19.102;2023-06-22T12:41:22;6.95;;;4.40;;
79027;SDS011;68427;48.476;19.102;2023-06-22T12:43:48;8.32;;;4.25;;
79027;SDS011;68427;48.476;19.102;2023-06-22T12:46:13;6.07;;;4.15;;
79027;SDS011;68427;48.476;19.102;2023-06-22T12:48:39;7.95;;;3.72;;
79027;SDS011;68427;48.476;19.102;2023-06-22T12:51:07;6.72;;;3.38;;
79027;SDS011;68427;48.476;19.102;2023-06-22T12:53:35;6.45;;;3.75;;
79027;SDS011;68427;48.476;19.102;2023-06-22T12:56:01;6.25;;;2.97;;
79027;SDS011;68427;48.476;19.102;2023-06-22T12:58:27;5.90;;;3.30;;
79027;SDS011;68427;48.476;19.102;2023-06-22T13:00:52;6.82;;;3.83;;
79027;SDS011;68427;48.476;19.102;2023-06-22T13:03:18;7.18;;;3.53;;
79027;SDS011;68427;48.476;19.102;2023-06-22T13:05:44;6.40;;;3.88;;
79027;SDS011;68427;48.476;19.102;2023-06-22T13:08:10;6.38;;;3.40;;
79027;SDS011;68427;48.476;19.102;2023-06-22T13:10:37;5.30;;;3.58;;
79027;SDS011;68427;48.476;19.102;2023-06-22T13:13:03;7.35;;;3.83;;
79027;SDS011;68427;48.476;19.102;2023-06-22T13:15:28;5.70;;;3.15;;
79027;SDS011;68427;48.476;19.102;2023-06-22T13:17:55;5.15;;;3.17;;
79027;SDS011;68427;48.476;19.102;2023-06-22T13:20:21;4.85;;;2.65;;
79027;SDS011;68427;48.476;19.102;2023-06-22T13:22:46;8.73;;;2.97;;
79027;SDS011;68427;48.476;19.102;2023-06-22T13:25:12;7.72;;;3.90;;
79027;SDS011;68427;48.476;19.102;2023-06-22T13:27:40;5.25;;;3.60;;
79027;SDS011;68427;48.476;19.102;2023-06-22T13:30:06;5.80;;;3.35;;
79027;SDS011;68427;48.476;19.102;2023-06-22T13:34:58;7.18;;;3.50;;
79027;SDS011;68427;48.476;19.102;2023-06-22T13:37:25;7.95;;;3.53;;
79027;SDS011;68427;48.476;19.102;2023-06-22T13:39:51;7.22;;;3.95;;
79027;SDS011;68427;48.476;19.102;2023-06-22T13:42:16;8.00;;;4.60;;
79027;SDS011;68427;48.476;19.102;2023-06-22T13:44:44;6.80;;;4.82;;
79027;SDS011;68427;48.476;19.102;2023-06-22T13:47:09;6.50;;;3.83;;
79027;SDS011;68427;48.476;19.102;2023-06-22T13:49:35;8.30;;;3.88;;
79027;SDS011;68427;48.476;19.102;2023-06-22T13:52:00;8.98;;;5.03;;
79027;SDS011;68427;48.476;19.102;2023-06-22T13:54:28;8.13;;;4.35;;
79027;SDS011;68427;48.476;19.102;2023-06-22T13:56:54;6.20;;;3.67;;
79027;SDS011;68427;48.476;19.102;2023-06-22T13:59:19;7.18;;;3.92;;
79027;SDS011;68427;48.476;19.102;2023-06-22T14:01:47;6.65;;;4.38;;
79027;SDS011;68427;48.476;19.102;2023-06-22T14:04:13;7.30;;;4.65;;
79027;SDS011;68427;48.476;19.102;2023-06-22T14:06:39;6.53;;;3.78;;
79027;SDS011;68427;48.476;19.102;2023-06-22T14:09:04;6.30;;;3.88;;
79027;SDS011;68427;48.476;19.102;2023-06-22T14:11:30;6.50;;;3.38;;
79027;SDS011;68427;48.476;19.102;2023-06-22T14:13:56;5.65;;;3.50;;
79027;SDS011;68427;48.476;19.102;2023-06-22T14:16:21;5.90;;;3.30;;
79027;SDS011;68427;48.476;19.102;2023-06-22T14:18:48;6.45;;;4.55;;
79027;SDS011;68427;48.476;19.102;2023-06-22T14:21:14;7.10;;;4.38;;
79027;SDS011;68427;48.476;19.102;2023-06-22T14:23:39;6.55;;;4.03;;
79027;SDS011;68427;48.476;19.102;2023-06-22T14:26:05;6.63;;;3.85;;
79027;SDS011;68427;48.476;19.102;2023-06-22T14:28:31;5.82;;;3.63;;
79027;SDS011;68427;48.476;19.102;2023-06-22T14:30:57;7.97;;;3.40;;
79027;SDS011;68427;48.476;19.102;2023-06-22T14:33:23;5.95;;;2.58;;
79027;SDS011;68427;48.476;19.102;2023-06-22T14:35:50;6.97;;;3.22;;
79027;SDS011;68427;48.476;19.102;2023-06-22T14:38:16;5.05;;;2.55;;
79027;SDS011;68427;48.476;19.102;2023-06-22T14:40:41;9.40;;;3.42;;
79027;SDS011;68427;48.476;19.102;2023-06-22T14:43:07;6.60;;;2.78;;
79027;SDS011;68427;48.476;19.102;2023-06-22T14:45:33;6.10;;;3.45;;
79027;SDS011;68427;48.476;19.102;2023-06-22T14:47:58;5.60;;;2.78;;